Time;durP1;ratioP1;P1;durP2;ratioP2;P2;SDS_P1;SDS_P2;PMS_P1;PMS_P2;Temp;Humidity;BMP_temperature;BMP_pressure;BME280_temperature;BME280_humidity;BME280_pressure;Samples;Min_cycle;Max_cycle;Signal;HPM_P1;HPM_P2
2022/07/31 00:00:09;;;;;;;3.80;2.17;;;19.10;98.30;;;;;;5095651;28;20548;-76
2022/07/31 00:02:35;;;;;;;3.38;2.80;;;19.10;98.20;;;;;;5095512;28;20046;-74
2022/07/31 00:05:02;;;;;;;3.15;2.38;;;19.00;98.30;;;;;;5095698;28;20093;-75
2022/07/31 00:07:28;;;;;;;4.15;2.90;;;19.00;98.40;;;;;;5095443;28;20032;-75
2022/07/31 00:09:54;;;;;;;3.00;2.53;;;19.00;98.30;;;;;;5095048;28;20127;-75
2022/07/31 00:12:20;;;;;;;3.90;2.65;;;19.00;98.40;;;;;;5095560;28;20085;-75
2022/07/31 00:14:46;;;;;;;3.85;2.33;;;19.00;98.30;;;;;;5095391;28;20051;-75
2022/07/31 00:17:12;;;;;;;3.58;2.20;;;19.00;98.40;;;;;;5095421;28;20107;-75
2022/07/31 00:19:38;;;;;;;3.67;2.63;;;18.90;98.40;;;;;;5095095;28;20479;-74
2022/07/31 00:22:03;;;;;;;3.85;2.95;;;18.90;98.40;;;;;;5094966;28;20490;-75
2022/07/31 00:24:29;;;;;;;3.28;2.28;;;18.90;98.30;;;;;;5094594;28;20028;-76
2022/07/31 00:26:55;;;;;;;2.40;2.20;;;18.90;98.30;;;;;;5094857;28;20036;-76
2022/07/31 00:29:21;;;;;;;2.88;1.98;;;18.90;98.10;;;;;;5094997;28;20138;-75
2022/07/31 00:31:46;;;;;;;2.47;2.28;;;18.90;98.00;;;;;;5094808;28;20036;-76
2022/07/31 00:34:12;;;;;;;9.23;2.55;;;18.90;97.90;;;;;;5095420;28;20039;-76
2022/07/31 00:36:38;;;;;;;2.53;2.10;;;18.90;97.60;;;;;;5094482;28;20039;-75
2022/07/31 00:39:04;;;;;;;4.00;2.25;;;18.90;97.40;;;;;;5095269;28;20490;-75
2022/07/31 00:41:44;;;;;;;5.53;2.20;;;18.90;97.30;;;;;;5095025;28;20035;-76
2022/07/31 00:44:11;;;;;;;3.27;2.37;;;18.90;97.20;;;;;;5095299;28;20031;-76
2022/07/31 00:46:37;;;;;;;3.13;2.58;;;18.90;97.10;;;;;;5094343;28;20457;-76
2022/07/31 00:49:03;;;;;;;3.25;2.15;;;18.90;97.20;;;;;;5094917;28;20027;-75
2022/07/31 00:51:29;;;;;;;4.10;2.40;;;18.90;97.10;;;;;;5094772;28;20035;-75
2022/07/31 00:53:54;;;;;;;3.05;2.45;;;18.90;97.10;;;;;;5094119;28;20032;-75
2022/07/31 00:56:20;;;;;;;2.60;2.38;;;18.90;97.00;;;;;;5094624;28;20024;-75
2022/07/31 00:58:46;;;;;;;2.67;2.10;;;18.90;97.10;;;;;;5094297;28;20056;-75
2022/07/31 01:01:12;;;;;;;2.85;2.40;;;18.90;96.90;;;;;;5094794;28;20073;-76
2022/07/31 01:03:37;;;;;;;2.58;2.10;;;18.90;96.70;;;;;;5094300;28;20114;-75
2022/07/31 01:06:03;;;;;;;2.40;2.08;;;18.90;96.80;;;;;;5094591;28;20028;-76
2022/07/31 01:08:29;;;;;;;4.05;2.30;;;18.90;96.70;;;;;;5094510;28;20419;-76
2022/07/31 01:11:01;;;;;;;2.70;2.00;;;18.90;96.70;;;;;;5093798;28;20024;-75
2022/07/31 01:13:36;;;;;;;2.33;2.13;;;18.90;96.70;;;;;;5094483;28;20385;-76
2022/07/31 01:16:06;;;;;;;2.25;2.03;;;18.90;96.60;;;;;;5094838;28;20035;-76
2022/07/31 01:18:36;;;;;;;3.33;2.70;;;18.90;96.70;;;;;;5094649;28;20028;-76
2022/07/31 01:21:17;;;;;;;2.97;2.42;;;18.90;96.60;;;;;;5093821;28;20040;-76
2022/07/31 01:23:42;;;;;;;2.65;2.20;;;18.90;96.90;;;;;;5093724;28;20016;-75
2022/07/31 01:26:24;;;;;;;2.70;2.10;;;18.80;97.20;;;;;;5094044;28;20107;-76
2022/07/31 01:28:56;;;;;;;2.70;2.17;;;18.90;97.00;;;;;;5093588;28;20533;-76
2022/07/31 01:31:54;;;;;;;5.13;2.47;;;18.90;97.10;;;;;;5094038;28;20028;-76
2022/07/31 01:34:38;;;;;;;2.85;2.25;;;18.80;97.10;;;;;;5093320;28;20408;-76
2022/07/31 01:37:33;;;;;;;4.03;2.60;;;18.80;97.10;;;;;;5093343;28;20024;-77
2022/07/31 01:40:10;;;;;;;2.65;2.22;;;18.80;97.10;;;;;;5089916;28;20059;-74
2022/07/31 01:42:38;;;;;;;3.83;2.42;;;18.80;97.10;;;;;;5093532;28;20024;-75
2022/07/31 01:45:06;;;;;;;2.53;2.20;;;18.80;97.10;;;;;;5092944;28;20474;-76
2022/07/31 01:47:34;;;;;;;3.78;2.58;;;18.80;97.00;;;;;;5093534;28;20543;-75
2022/07/31 01:50:01;;;;;;;2.58;2.03;;;18.70;97.00;;;;;;5092995;28;20372;-75
2022/07/31 01:52:29;;;;;;;5.03;2.72;;;18.70;96.80;;;;;;5093716;28;20031;-75
2022/07/31 01:54:57;;;;;;;2.47;2.28;;;18.70;96.70;;;;;;5092957;28;20039;-75
2022/07/31 01:57:24;;;;;;;2.97;2.55;;;18.70;96.60;;;;;;5093581;28;20483;-75
2022/07/31 01:59:57;;;;;;;2.65;2.42;;;18.70;96.60;;;;;;5093149;28;20028;-75
2022/07/31 02:02:24;;;;;;;2.13;1.92;;;18.70;96.50;;;;;;5093221;28;20028;-76
2022/07/31 02:04:50;;;;;;;4.10;2.45;;;18.70;96.30;;;;;;5093167;28;20028;-74
2022/07/31 02:07:16;;;;;;;3.65;2.33;;;18.60;96.20;;;;;;5093391;28;20028;-74
2022/07/31 02:09:43;;;;;;;3.65;2.05;;;18.60;96.00;;;;;;5092974;28;20026;-74
2022/07/31 02:12:11;;;;;;;3.40;2.17;;;18.60;95.90;;;;;;5093405;28;20036;-75
2022/07/31 02:14:41;;;;;;;3.75;2.38;;;18.60;96.20;;;;;;5093329;28;20107;-75
2022/07/31 02:17:08;;;;;;;3.50;2.03;;;18.60;95.80;;;;;;5093351;28;20031;-75
2022/07/31 02:19:40;;;;;;;2.45;2.10;;;18.60;95.80;;;;;;5092959;28;20107;-75
2022/07/31 02:22:05;;;;;;;;;;;18.60;95.70;;;;;;5093322;28;20491;-75
2022/07/31 02:24:32;;;;;;;5.93;2.10;;;18.60;95.80;;;;;;5093215;28;19995;-75
2022/07/31 02:26:58;;;;;;;3.35;2.38;;;18.60;95.70;;;;;;5092769;28;20038;-75
2022/07/31 02:29:26;;;;;;;2.53;1.73;;;18.60;95.80;;;;;;5092543;28;20100;-75
2022/07/31 02:31:54;;;;;;;3.00;2.30;;;18.60;95.80;;;;;;5092697;28;20040;-76
2022/07/31 02:34:22;;;;;;;2.70;2.30;;;18.60;95.90;;;;;;5093047;28;20028;-75
2022/07/31 02:36:49;;;;;;;4.13;2.75;;;18.50;96.00;;;;;;5092455;28;20108;-75
2022/07/31 02:39:16;;;;;;;2.70;2.50;;;18.50;96.30;;;;;;5093044;28;20032;-75
2022/07/31 02:41:43;;;;;;;2.92;2.40;;;18.50;96.40;;;;;;5093005;28;20468;-75
2022/07/31 02:44:11;;;;;;;3.92;2.28;;;18.50;96.50;;;;;;5093034;28;20029;-75
2022/07/31 02:46:37;;;;;;;2.53;2.10;;;18.50;96.50;;;;;;5093474;28;20469;-75
2022/07/31 02:49:04;;;;;;;2.92;2.60;;;18.50;96.60;;;;;;5096839;28;20276;-76
2022/07/31 02:51:30;;;;;;;2.75;1.90;;;18.50;96.60;;;;;;5097109;28;20032;-75
2022/07/31 02:53:57;;;;;;;3.45;2.67;;;18.50;96.70;;;;;;5096474;28;20408;-74
2022/07/31 02:56:23;;;;;;;3.17;2.30;;;18.50;96.70;;;;;;5097256;28;20437;-75
2022/07/31 02:58:50;;;;;;;2.10;1.90;;;18.50;96.50;;;;;;5096646;28;20035;-74
2022/07/31 03:01:16;;;;;;;3.97;2.40;;;18.50;96.50;;;;;;5096920;28;20039;-75
2022/07/31 03:03:41;;;;;;;2.95;2.55;;;18.50;96.30;;;;;;5096847;28;20024;-75
2022/07/31 03:06:07;;;;;;;3.25;2.33;;;18.60;96.40;;;;;;5096418;28;20066;-75
2022/07/31 03:08:33;;;;;;;2.72;2.33;;;18.60;96.10;;;;;;5096720;28;20579;-76
2022/07/31 03:10:59;;;;;;;3.40;2.60;;;18.60;96.30;;;;;;5096271;28;20036;-76
2022/07/31 03:13:28;;;;;;;4.15;2.30;;;18.60;96.30;;;;;;5096837;28;20084;-75
2022/07/31 03:15:56;;;;;;;2.90;2.40;;;18.60;96.10;;;;;;5096182;28;20119;-74
2022/07/31 03:18:22;;;;;;;2.92;2.30;;;18.60;96.10;;;;;;5095237;28;20440;-75
2022/07/31 03:20:52;;;;;;;3.38;2.30;;;18.60;96.10;;;;;;5096092;28;20024;-74
2022/07/31 03:23:20;;;;;;;4.20;2.70;;;18.60;96.30;;;;;;5096413;28;20032;-75
2022/07/31 03:25:49;;;;;;;3.60;2.63;;;18.60;96.30;;;;;;5096482;28;20081;-74
2022/07/31 03:28:15;;;;;;;3.17;2.50;;;18.60;96.40;;;;;;5096416;28;20028;-74
2022/07/31 03:30:40;;;;;;;3.38;2.30;;;18.60;96.10;;;;;;5094981;28;20055;-74
2022/07/31 03:33:07;;;;;;;3.08;2.50;;;18.60;95.70;;;;;;5095984;28;20342;-73
2022/07/31 03:35:32;;;;;;;3.13;2.50;;;18.60;95.80;;;;;;5095460;28;20028;-74
2022/07/31 03:37:59;;;;;;;4.72;2.35;;;18.70;95.80;;;;;;5095736;28;20099;-73
2022/07/31 03:40:24;;;;;;;3.08;2.40;;;18.70;95.90;;;;;;5096199;28;20032;-74
2022/07/31 03:42:52;;;;;;;4.68;2.40;;;18.70;95.70;;;;;;5095307;28;20028;-75
2022/07/31 03:45:19;;;;;;;2.80;2.03;;;18.60;95.90;;;;;;5095048;28;20047;-74
2022/07/31 03:47:45;;;;;;;3.33;2.40;;;18.70;96.00;;;;;;5095242;28;20038;-74
2022/07/31 03:50:11;;;;;;;3.35;2.65;;;18.70;96.10;;;;;;5094818;28;20074;-74
2022/07/31 03:52:38;;;;;;;3.67;2.63;;;18.70;95.90;;;;;;5095184;28;20023;-74
2022/07/31 03:55:05;;;;;;;3.72;2.92;;;18.70;95.90;;;;;;5095131;28;20055;-74
2022/07/31 03:57:32;;;;;;;4.85;2.50;;;18.70;95.80;;;;;;5095777;28;20020;-74
2022/07/31 04:00:00;;;;;;;3.15;2.60;;;18.70;95.50;;;;;;5093910;28;20028;-75
2022/07/31 04:02:27;;;;;;;3.88;2.55;;;18.70;95.60;;;;;;5095290;28;20469;-75
2022/07/31 04:04:52;;;;;;;3.53;2.67;;;18.70;95.70;;;;;;5094884;28;20471;-74
2022/07/31 04:07:18;;;;;;;2.88;2.20;;;18.80;95.70;;;;;;5095352;28;20020;-74
2022/07/31 04:09:44;;;;;;;3.97;2.80;;;18.70;95.70;;;;;;5095164;28;20024;-75
2022/07/31 04:12:09;;;;;;;3.70;2.67;;;18.80;95.70;;;;;;5094912;28;20206;-74
2022/07/31 04:14:35;;;;;;;4.63;2.58;;;18.80;95.70;;;;;;5094798;28;20368;-74
2022/07/31 04:17:01;;;;;;;4.47;2.55;;;18.80;95.60;;;;;;5094453;28;20388;-74
2022/07/31 04:19:29;;;;;;;2.80;2.40;;;18.80;95.50;;;;;;5092304;28;20103;-73
2022/07/31 04:21:58;;;;;;;4.20;3.17;;;18.80;95.60;;;;;;5094439;28;20043;-72
2022/07/31 04:24:24;;;;;;;3.30;2.80;;;18.80;95.70;;;;;;5095103;28;20032;-72
2022/07/31 04:26:51;;;;;;;2.65;2.42;;;18.80;95.60;;;;;;5095043;28;20444;-73
2022/07/31 04:29:17;;;;;;;4.75;2.80;;;18.80;95.50;;;;;;5095231;28;20052;-73
2022/07/31 04:31:42;;;;;;;3.10;2.63;;;18.80;95.50;;;;;;5095038;28;20036;-73
2022/07/31 04:34:08;;;;;;;3.25;2.60;;;18.80;95.30;;;;;;5094698;28;20035;-73
2022/07/31 04:36:33;;;;;;;4.30;2.83;;;18.80;95.00;;;;;;5095166;28;20035;-73
2022/07/31 04:39:00;;;;;;;3.22;2.45;;;18.90;95.10;;;;;;5094648;28;20435;-73
2022/07/31 04:41:26;;;;;;;5.80;2.83;;;18.90;94.90;;;;;;5094655;28;20032;-74
2022/07/31 04:43:52;;;;;;;3.13;2.55;;;18.90;95.00;;;;;;5094577;28;20387;-72
2022/07/31 04:46:18;;;;;;;2.80;2.45;;;18.90;95.00;;;;;;5094793;28;20032;-73
2022/07/31 04:48:44;;;;;;;5.20;2.60;;;18.90;94.70;;;;;;5094455;28;20380;-74
2022/07/31 04:51:16;;;;;;;3.38;2.55;;;19.00;94.40;;;;;;5094028;28;20035;-72
2022/07/31 04:53:43;;;;;;;3.30;2.47;;;19.00;94.60;;;;;;5094440;28;20062;-73
2022/07/31 04:58:52;;;;;;;3.72;2.67;;;19.10;94.40;;;;;;5094264;28;20042;-73
2022/07/31 05:01:18;;;;;;;3.33;2.63;;;19.20;94.00;;;;;;5094307;28;20024;-74
2022/07/31 05:03:44;;;;;;;3.17;2.80;;;19.20;93.90;;;;;;5094474;28;20365;-74
2022/07/31 05:06:13;;;;;;;3.55;3.22;;;19.20;94.00;;;;;;5094077;28;20031;-73
2022/07/31 05:08:39;;;;;;;3.45;2.83;;;19.30;93.70;;;;;;5094201;28;20036;-73
2022/07/31 05:11:23;;;;;;;3.10;2.40;;;19.30;93.60;;;;;;5093447;28;20128;-74
2022/07/31 05:13:53;;;;;;;3.55;2.65;;;19.30;93.10;;;;;;5094104;28;20116;-74
2022/07/31 05:16:19;;;;;;;3.90;3.15;;;19.30;93.10;;;;;;5094207;28;20055;-75
2022/07/31 05:18:46;;;;;;;3.33;2.50;;;19.30;93.20;;;;;;5094102;28;20118;-74
2022/07/31 05:21:13;;;;;;;2.95;2.28;;;19.30;92.90;;;;;;5093719;28;20032;-75
2022/07/31 05:23:43;;;;;;;2.30;1.83;;;19.40;92.80;;;;;;5094094;28;20028;-75
2022/07/31 05:26:10;;;;;;;2.95;2.20;;;19.60;91.40;;;;;;5093620;28;20024;-75
2022/07/31 05:28:37;;;;;;;3.00;2.40;;;19.70;90.50;;;;;;5093888;28;20032;-74
2022/07/31 05:31:04;;;;;;;2.85;2.35;;;19.70;90.60;;;;;;5093103;28;20044;-74
2022/07/31 05:33:30;;;;;;;4.35;2.83;;;19.80;90.50;;;;;;5093850;28;20085;-74
2022/07/31 05:35:56;;;;;;;4.35;2.42;;;19.80;90.10;;;;;;5093151;28;20102;-73
2022/07/31 05:38:22;;;;;;;2.95;2.25;;;19.80;90.10;;;;;;5093853;28;20035;-74
2022/07/31 05:40:48;;;;;;;2.92;2.28;;;19.70;90.40;;;;;;5093740;28;20032;-74
2022/07/31 05:43:13;;;;;;;3.17;2.30;;;19.80;90.40;;;;;;5093139;28;20383;-76
2022/07/31 05:45:39;;;;;;;5.03;2.35;;;20.00;89.40;;;;;;5093241;28;20081;-73
2022/07/31 05:48:05;;;;;;;3.22;2.30;;;20.30;87.90;;;;;;5093556;28;20020;-74
2022/07/31 05:50:32;;;;;;;2.28;2.08;;;20.50;87.40;;;;;;5093545;28;20047;-75
2022/07/31 05:52:58;;;;;;;3.13;2.17;;;21.00;85.10;;;;;;5092982;28;20388;-82
2022/07/31 05:55:24;;;;;;;3.13;2.35;;;21.20;83.20;;;;;;5093553;28;20028;-75
2022/07/31 05:57:50;;;;;;;2.80;2.15;;;21.30;81.60;;;;;;5093140;28;20024;-76
2022/07/31 06:00:16;;;;;;;6.10;2.17;;;22.00;80.80;;;;;;5092957;28;20072;-79
2022/07/31 06:02:41;;;;;;;2.42;2.22;;;23.00;76.10;;;;;;5093786;28;20416;-75
2022/07/31 06:05:08;;;;;;;3.53;2.20;;;23.90;69.20;;;;;;5093632;28;20035;-74
2022/07/31 06:07:34;;;;;;;5.93;2.22;;;24.70;66.20;;;;;;5092671;28;20032;-75
2022/07/31 06:10:00;;;;;;;3.58;1.90;;;25.50;62.60;;;;;;5092182;28;20035;-75
2022/07/31 06:12:26;;;;;;;2.00;1.80;;;26.40;60.20;;;;;;5092546;28;20028;-76
2022/07/31 06:14:52;;;;;;;3.38;2.10;;;26.80;57.60;;;;;;5093398;28;20111;-76
2022/07/31 06:17:17;;;;;;;2.95;2.15;;;27.40;55.50;;;;;;5099820;28;20491;-75
2022/07/31 06:19:43;;;;;;;2.80;2.45;;;27.80;53.80;;;;;;5102434;28;20019;-75
2022/07/31 06:22:09;;;;;;;2.53;2.20;;;28.30;52.00;;;;;;5093709;28;20072;-74
2022/07/31 06:24:36;;;;;;;2.28;1.98;;;28.10;50.70;;;;;;5101039;28;20103;-74
2022/07/31 06:27:02;;;;;;;2.42;1.90;;;27.70;51.50;;;;;;5096454;28;20032;-74
2022/07/31 06:29:28;;;;;;;2.42;1.90;;;27.30;52.20;;;;;;5099859;28;20480;-75
2022/07/31 06:31:54;;;;;;;2.55;2.35;;;26.80;53.60;;;;;;5101445;28;20089;-75
2022/07/31 06:34:19;;;;;;;2.70;2.00;;;26.30;54.10;;;;;;5099530;28;20089;-74
2022/07/31 06:36:45;;;;;;;3.20;1.90;;;26.30;54.90;;;;;;5094768;28;20028;-75
2022/07/31 06:39:11;;;;;;;2.55;2.03;;;26.20;55.20;;;;;;5094342;28;20032;-74
2022/07/31 06:41:46;;;;;;;2.42;2.20;;;26.20;55.40;;;;;;5111954;28;20107;-75
2022/07/31 06:44:20;;;;;;;2.30;2.10;;;26.10;55.70;;;;;;5103685;28;20070;-75
2022/07/31 06:46:46;;;;;;;2.83;2.05;;;26.30;55.10;;;;;;5101670;28;20031;-74
2022/07/31 06:49:12;;;;;;;5.25;2.53;;;26.40;54.90;;;;;;5106490;28;20140;-76
2022/07/31 06:51:38;;;;;;;2.70;2.20;;;26.50;54.30;;;;;;5097278;28;20415;-75
2022/07/31 06:54:06;;;;;;;3.00;1.77;;;26.70;54.50;;;;;;5101815;28;20027;-74
2022/07/31 06:56:33;;;;;;;2.08;1.60;;;26.90;53.70;;;;;;5103702;28;20035;-74
2022/07/31 06:58:59;;;;;;;2.25;1.67;;;26.70;52.80;;;;;;5102880;28;20446;-74
2022/07/31 07:01:25;;;;;;;2.70;2.00;;;27.10;53.60;;;;;;5096136;28;20388;-75
2022/07/31 07:03:51;;;;;;;4.22;2.08;;;27.70;52.10;;;;;;5096232;28;20039;-74
2022/07/31 07:06:16;;;;;;;1.80;1.42;;;28.30;50.50;;;;;;5093783;28;20038;-74
2022/07/31 07:08:42;;;;;;;2.42;1.70;;;28.80;49.40;;;;;;5092581;28;20028;-74
2022/07/31 07:11:08;;;;;;;2.85;1.80;;;29.00;49.30;;;;;;5092050;28;20061;-74
2022/07/31 07:13:34;;;;;;;2.33;1.50;;;29.40;47.70;;;;;;5091036;28;20052;-74
2022/07/31 07:15:59;;;;;;;1.88;1.77;;;29.70;47.50;;;;;;5090818;28;20028;-74
2022/07/31 07:18:25;;;;;;;2.00;1.65;;;29.70;46.70;;;;;;5091089;28;20099;-75
2022/07/31 07:20:51;;;;;;;3.97;1.55;;;29.90;45.80;;;;;;5091098;28;20034;-75
2022/07/31 07:23:17;;;;;;;2.83;1.92;;;30.10;45.20;;;;;;5091393;28;20439;-74
2022/07/31 07:25:43;;;;;;;2.85;1.50;;;30.30;45.30;;;;;;5091315;28;20412;-74
2022/07/31 07:28:09;;;;;;;1.88;1.60;;;30.40;44.50;;;;;;5089705;28;20024;-74
2022/07/31 07:30:35;;;;;;;2.70;1.67;;;30.70;44.10;;;;;;5091824;28;20055;-75
2022/07/31 07:33:01;;;;;;;2.83;1.70;;;31.40;43.20;;;;;;5092028;28;20028;-74
2022/07/31 07:35:27;;;;;;;2.33;1.70;;;31.30;42.90;;;;;;5095899;28;20379;-73
2022/07/31 07:37:53;;;;;;;2.95;1.30;;;31.40;42.80;;;;;;5095919;28;20055;-74
2022/07/31 07:40:19;;;;;;;2.10;1.20;;;31.60;41.90;;;;;;5095165;28;20095;-72
2022/07/31 07:42:46;;;;;;;2.35;1.40;;;31.80;41.80;;;;;;5094921;28;20024;-74
2022/07/31 07:45:12;;;;;;;2.17;1.42;;;32.10;41.30;;;;;;5094255;28;20492;-73
2022/07/31 07:47:38;;;;;;;2.05;1.45;;;32.50;40.90;;;;;;5094825;28;20035;-74
2022/07/31 07:50:06;;;;;;;1.85;1.50;;;32.20;40.80;;;;;;5095862;28;20032;-74
2022/07/31 07:52:32;;;;;;;2.58;1.80;;;32.40;40.50;;;;;;5094985;28;20103;-73
2022/07/31 07:54:57;;;;;;;2.67;2.10;;;32.20;40.80;;;;;;5094975;28;20365;-74
2022/07/31 07:57:23;;;;;;;2.10;1.90;;;32.30;41.20;;;;;;5094474;28;20081;-73
2022/07/31 07:59:49;;;;;;;4.53;2.05;;;32.40;41.90;;;;;;5094264;28;20023;-74
2022/07/31 08:02:15;;;;;;;3.00;2.08;;;33.10;40.50;;;;;;5093927;28;20020;-75
2022/07/31 08:04:41;;;;;;;2.47;1.75;;;33.20;40.60;;;;;;5094352;28;20024;-74
2022/07/31 08:07:07;;;;;;;1.80;1.70;;;33.30;40.50;;;;;;5093796;28;20020;-73
2022/07/31 08:09:33;;;;;;;1.88;1.40;;;33.60;39.80;;;;;;5094138;28;20027;-73
2022/07/31 08:12:00;;;;;;;2.00;1.70;;;33.90;39.10;;;;;;5093787;28;20036;-73
2022/07/31 08:14:26;;;;;;;3.25;1.65;;;34.00;39.50;;;;;;5093593;28;20464;-72
2022/07/31 08:16:52;;;;;;;2.78;2.10;;;33.80;39.10;;;;;;5094358;28;20016;-74
2022/07/31 08:19:18;;;;;;;1.92;1.73;;;33.30;39.70;;;;;;5093513;28;20153;-73
2022/07/31 08:21:44;;;;;;;1.70;1.55;;;32.70;40.70;;;;;;5093076;28;20107;-72
2022/07/31 08:24:12;;;;;;;3.72;2.00;;;33.30;40.70;;;;;;5092001;28;20023;-72
2022/07/31 08:29:23;;;;;;;2.45;1.73;;;33.20;39.00;;;;;;5093383;28;20563;-74
2022/07/31 08:31:50;;;;;;;1.92;1.40;;;33.40;40.00;;;;;;5093642;28;20066;-77
2022/07/31 08:34:16;;;;;;;1.90;1.55;;;33.60;38.90;;;;;;5093216;28;20107;-75
2022/07/31 08:36:43;;;;;;;3.53;2.05;;;34.00;38.70;;;;;;5093424;28;20508;-77
2022/07/31 08:39:09;;;;;;;3.40;2.00;;;34.00;39.20;;;;;;5093229;28;20441;-75
2022/07/31 08:41:37;;;;;;;4.03;1.75;;;33.80;39.10;;;;;;5096184;28;20035;-75
2022/07/31 08:44:06;;;;;;;2.35;1.75;;;33.10;39.00;;;;;;5102277;28;20027;-74
2022/07/31 08:46:36;;;;;;;1.95;1.40;;;32.40;40.30;;;;;;5092367;28;20453;-74
2022/07/31 08:49:03;;;;;;;3.40;1.77;;;33.00;39.80;;;;;;5097271;28;20048;-74
2022/07/31 08:51:34;;;;;;;4.18;2.03;;;33.00;40.00;;;;;;5096171;28;20590;-75
2022/07/31 08:54:05;;;;;;;1.67;1.27;;;32.40;40.10;;;;;;5091797;28;20066;-75
2022/07/31 08:56:34;;;;;;;6.55;1.58;;;31.40;40.30;;;;;;5102426;28;20035;-76
2022/07/31 08:59:00;;;;;;;2.45;1.83;;;31.20;41.60;;;;;;5097834;28;20043;-74
2022/07/31 09:01:26;;;;;;;2.60;1.90;;;30.70;42.20;;;;;;5097056;28;20043;-74
2022/07/31 09:03:53;;;;;;;2.00;1.65;;;29.80;43.20;;;;;;5094077;28;20028;-76
2022/07/31 09:06:19;;;;;;;4.50;1.65;;;29.10;44.20;;;;;;5093629;28;20020;-76
2022/07/31 09:08:45;;;;;;;1.70;1.60;;;28.80;45.00;;;;;;5093919;28;20377;-76
2022/07/31 09:11:13;;;;;;;1.55;1.42;;;28.10;47.10;;;;;;5109005;28;20032;-75
2022/07/31 09:13:40;;;;;;;2.10;1.67;;;27.50;47.40;;;;;;5115112;28;20024;-75
2022/07/31 09:16:06;;;;;;;4.57;1.80;;;27.10;47.50;;;;;;5114337;28;20034;-75
2022/07/31 09:18:32;;;;;;;1.67;1.50;;;26.70;48.50;;;;;;5114231;28;20494;-75
2022/07/31 09:21:03;;;;;;;2.83;1.60;;;26.70;49.60;;;;;;5114414;28;20035;-75
2022/07/31 09:23:31;;;;;;;2.35;1.83;;;26.50;50.00;;;;;;5114272;28;20036;-75
2022/07/31 09:25:58;;;;;;;2.00;1.42;;;26.40;50.10;;;;;;5112808;28;20028;-75
2022/07/31 09:28:35;;;;;;;3.20;1.88;;;26.40;48.70;;;;;;5093881;28;20032;-76
2022/07/31 09:31:03;;;;;;;1.65;1.45;;;26.50;49.50;;;;;;5093544;28;20206;-77
2022/07/31 09:33:29;;;;;;;1.98;1.75;;;26.40;46.50;;;;;;5093501;28;20024;-74
2022/07/31 09:35:56;;;;;;;3.20;1.90;;;26.40;47.00;;;;;;5093629;28;20039;-76
2022/07/31 09:38:31;;;;;;;2.15;1.65;;;26.40;47.70;;;;;;5093433;28;20031;-74
2022/07/31 09:41:07;;;;;;;1.40;1.30;;;26.30;47.90;;;;;;5093383;28;20430;-75
2022/07/31 09:43:33;;;;;;;2.15;1.52;;;26.20;47.50;;;;;;5093599;28;20145;-75
2022/07/31 09:46:04;;;;;;;3.95;1.60;;;26.30;46.70;;;;;;5093468;28;20115;-75
2022/07/31 09:48:30;;;;;;;1.73;1.48;;;26.30;47.30;;;;;;5092535;28;20499;-75
2022/07/31 09:51:04;;;;;;;1.92;1.30;;;26.30;46.10;;;;;;5093414;28;20071;-75
2022/07/31 09:53:48;;;;;;;1.15;1.05;;;26.40;46.30;;;;;;5093170;28;20031;-74
2022/07/31 09:56:14;;;;;;;2.10;1.52;;;26.40;45.40;;;;;;5092010;28;20077;-75
2022/07/31 09:58:41;;;;;;;3.25;1.30;;;26.50;45.50;;;;;;5075045;28;20056;-75
2022/07/31 10:01:11;;;;;;;1.58;1.40;;;26.50;45.40;;;;;;5072795;28;20070;-74
2022/07/31 10:03:39;;;;;;;1.20;1.10;;;26.40;46.00;;;;;;5073076;28;20058;-75
2022/07/31 10:06:07;;;;;;;2.60;1.90;;;26.30;46.60;;;;;;5073084;28;20071;-75
2022/07/31 10:08:35;;;;;;;1.52;1.23;;;26.40;46.90;;;;;;5073149;28;20165;-75
2022/07/31 10:11:05;;;;;;;1.63;1.45;;;26.40;45.80;;;;;;5073488;28;20115;-75
2022/07/31 10:13:37;;;;;;;1.60;1.40;;;26.50;46.60;;;;;;5092047;28;20026;-76
2022/07/31 10:16:04;;;;;;;2.00;1.70;;;26.40;46.20;;;;;;5093429;28;20249;-75
2022/07/31 10:18:36;;;;;;;2.38;1.55;;;26.40;47.80;;;;;;5092526;28;20460;-76
2022/07/31 10:21:04;;;;;;;1.90;1.50;;;26.30;47.00;;;;;;5092908;28;20039;-76
2022/07/31 10:23:33;;;;;;;1.55;1.40;;;26.30;47.00;;;;;;5092687;28;20027;-76
2022/07/31 10:26:01;;;;;;;4.80;1.42;;;26.40;47.70;;;;;;5092662;28;20031;-76
2022/07/31 10:28:30;;;;;;;2.85;1.50;;;26.40;47.70;;;;;;5092367;28;20035;-75
2022/07/31 10:30:57;;;;;;;2.03;1.30;;;26.50;45.90;;;;;;5092794;28;20044;-76
2022/07/31 10:33:25;;;;;;;1.50;1.40;;;26.50;45.20;;;;;;5092168;28;20392;-75
2022/07/31 10:36:09;;;;;;;2.50;1.52;;;26.50;47.10;;;;;;5092809;28;20035;-76
2022/07/31 10:38:59;;;;;;;1.70;1.42;;;26.50;46.80;;;;;;5092494;28;20025;-76
2022/07/31 10:41:43;;;;;;;1.08;1.02;;;26.60;46.20;;;;;;5091253;28;20032;-75
2022/07/31 10:44:27;;;;;;;1.85;1.48;;;26.70;45.70;;;;;;5092401;28;20028;-75
2022/07/31 10:46:53;;;;;;;2.10;1.33;;;26.60;45.30;;;;;;5091855;28;20051;-76
2022/07/31 10:49:36;;;;;;;1.70;1.38;;;26.60;44.40;;;;;;5092491;28;20067;-76
2022/07/31 10:52:02;;;;;;;1.60;1.23;;;26.70;45.10;;;;;;5092733;28;20043;-76
2022/07/31 10:54:37;;;;;;;2.35;1.50;;;26.70;45.50;;;;;;5092227;28;20032;-75
2022/07/31 10:57:03;;;;;;;1.83;1.30;;;26.80;44.90;;;;;;5092223;28;20081;-75
2022/07/31 10:59:29;;;;;;;1.80;1.25;;;26.90;45.20;;;;;;5092179;28;20476;-75
2022/07/31 11:01:55;;;;;;;1.95;1.60;;;26.90;45.50;;;;;;5092496;28;20036;-76
2022/07/31 11:04:33;;;;;;;2.08;1.55;;;27.00;44.20;;;;;;5092139;28;20020;-75
2022/07/31 11:06:59;;;;;;;2.10;1.65;;;26.90;44.70;;;;;;5092593;28;20403;-75
2022/07/31 11:09:27;;;;;;;1.65;1.40;;;26.90;44.60;;;;;;5096253;28;20024;-75
2022/07/31 11:11:54;;;;;;;2.80;1.55;;;26.90;45.20;;;;;;5096613;28;20073;-75
2022/07/31 11:14:39;;;;;;;2.50;1.55;;;26.80;45.60;;;;;;5096022;28;20059;-75
2022/07/31 11:17:04;;;;;;;1.33;1.20;;;26.90;45.90;;;;;;5096422;28;20123;-75
2022/07/31 11:19:41;;;;;;;3.58;1.95;;;26.90;45.90;;;;;;5095826;28;20091;-75
2022/07/31 11:22:16;;;;;;;1.50;1.40;;;26.90;45.90;;;;;;5096576;28;20054;-76
2022/07/31 11:24:54;;;;;;;1.95;1.38;;;26.80;45.50;;;;;;5096526;28;20020;-76
2022/07/31 11:27:32;;;;;;;1.55;1.40;;;26.80;45.40;;;;;;5096052;28;20479;-75
2022/07/31 11:30:05;;;;;;;2.08;1.48;;;26.80;46.30;;;;;;5096097;28;20051;-75
2022/07/31 11:32:31;;;;;;;2.00;1.45;;;26.80;46.50;;;;;;5095977;28;20078;-75
2022/07/31 11:34:57;;;;;;;3.65;1.50;;;26.90;46.90;;;;;;5096388;28;20083;-75
2022/07/31 11:37:24;;;;;;;3.67;1.70;;;26.90;46.60;;;;;;5095955;28;20020;-75
2022/07/31 11:39:51;;;;;;;1.48;1.20;;;27.00;47.00;;;;;;5095919;28;20469;-75
2022/07/31 11:42:18;;;;;;;2.30;1.70;;;27.10;46.70;;;;;;5095821;28;20035;-76
2022/07/31 11:44:44;;;;;;;1.70;1.35;;;27.10;45.40;;;;;;5096378;28;20077;-76
2022/07/31 11:47:10;;;;;;;1.70;1.60;;;27.00;45.30;;;;;;5095794;28;20433;-75
2022/07/31 11:49:36;;;;;;;2.20;1.60;;;27.00;45.90;;;;;;5095347;28;20035;-74
2022/07/31 11:52:04;;;;;;;2.10;1.73;;;27.00;46.80;;;;;;5095629;28;20114;-75
2022/07/31 11:54:30;;;;;;;1.73;1.45;;;27.10;45.70;;;;;;5095691;28;20032;-74
2022/07/31 11:56:56;;;;;;;2.15;1.75;;;27.10;45.40;;;;;;5094586;28;20028;-75
2022/07/31 11:59:35;;;;;;;1.77;1.40;;;27.10;45.20;;;;;;5095364;28;20020;-76
2022/07/31 12:02:08;;;;;;;3.05;1.52;;;27.10;45.60;;;;;;5095930;28;20450;-76
2022/07/31 12:04:35;;;;;;;2.00;1.33;;;26.90;45.60;;;;;;5089989;28;20025;-75
2022/07/31 12:07:02;;;;;;;4.05;2.28;;;26.90;46.20;;;;;;5093758;28;20024;-76
2022/07/31 12:09:29;;;;;;;2.80;1.40;;;26.80;45.90;;;;;;5090996;28;20035;-75
2022/07/31 12:11:55;;;;;;;2.05;1.23;;;26.90;47.00;;;;;;5093295;28;20538;-76
2022/07/31 12:14:35;;;;;;;2.85;1.40;;;27.00;47.40;;;;;;5092303;28;20049;-75
2022/07/31 12:17:03;;;;;;;1.67;1.40;;;27.00;46.00;;;;;;5093074;28;20539;-75
2022/07/31 12:19:31;;;;;;;1.33;1.23;;;27.00;45.50;;;;;;5088195;28;20341;-75
2022/07/31 12:21:58;;;;;;;1.60;1.35;;;26.90;46.00;;;;;;5093808;28;20063;-75
2022/07/31 12:24:24;;;;;;;1.90;1.33;;;26.80;46.20;;;;;;5094747;28;20421;-75
2022/07/31 12:26:58;;;;;;;2.15;1.50;;;26.80;46.50;;;;;;5094552;28;20115;-76
2022/07/31 12:29:37;;;;;;;2.17;1.70;;;26.80;45.40;;;;;;5094403;28;20052;-75
2022/07/31 12:32:05;;;;;;;2.88;1.60;;;26.70;44.90;;;;;;5094923;28;20056;-75
2022/07/31 12:34:38;;;;;;;4.15;1.63;;;26.70;45.30;;;;;;5094504;28;20028;-74
2022/07/31 12:37:04;;;;;;;2.28;1.40;;;26.70;44.80;;;;;;5094869;28;20024;-75
2022/07/31 12:39:33;;;;;;;3.53;1.60;;;26.70;45.20;;;;;;5094426;28;20427;-75
2022/07/31 12:41:59;;;;;;;1.60;1.38;;;26.80;45.10;;;;;;5093864;28;20427;-75
2022/07/31 12:44:24;;;;;;;1.75;1.40;;;26.80;45.50;;;;;;5092809;28;20023;-76
2022/07/31 12:46:50;;;;;;;1.52;1.42;;;26.90;45.40;;;;;;5092296;28;20032;-75
2022/07/31 12:49:16;;;;;;;2.33;1.50;;;26.90;44.90;;;;;;5092574;28;20027;-76
2022/07/31 12:51:42;;;;;;;2.47;1.20;;;27.00;44.80;;;;;;5090283;28;20024;-76
2022/07/31 12:54:08;;;;;;;1.60;1.25;;;27.00;45.10;;;;;;5094035;28;20035;-75
2022/07/31 12:56:36;;;;;;;2.25;1.50;;;27.00;45.20;;;;;;5093329;28;20020;-74